Time;durP1;ratioP1;P1;durP2;ratioP2;P2;SDS_P1;SDS_P2;PMS_P1;PMS_P2;Temp;Humidity;BMP_temperature;BMP_pressure;BME280_temperature;BME280_humidity;BME280_pressure;Samples;Min_cycle;Max_cycle;Signal;HPM_P1;HPM_P2
2023/11/03 00:00:34;;;;;;;10.63;5.10;;;8.20;99.90;;;;;;5031106;28;20124;-40
2023/11/03 00:03:05;;;;;;;8.75;4.70;;;8.20;99.90;;;;;;5032475;28;20099;-37
2023/11/03 00:05:35;;;;;;;8.30;4.93;;;8.10;99.90;;;;;;5031923;28;20095;-39
2023/11/03 00:08:03;;;;;;;7.75;4.60;;;8.10;99.90;;;;;;5031971;28;20037;-38
2023/11/03 00:10:31;;;;;;;9.30;5.10;;;8.10;99.90;;;;;;5031860;28;20041;-37
2023/11/03 00:12:59;;;;;;;7.65;4.95;;;8.10;99.90;;;;;;5032395;28;20048;-38
2023/11/03 00:15:27;;;;;;;8.82;5.25;;;8.10;99.90;;;;;;5031922;28;20380;-38
2023/11/03 00:17:54;;;;;;;15.07;5.18;;;8.10;99.90;;;;;;5032238;28;20099;-37
2023/11/03 00:20:21;;;;;;;8.18;5.70;;;8.00;99.90;;;;;;5031809;28;20795;-38
2023/11/03 00:22:48;;;;;;;8.57;4.65;;;8.00;99.90;;;;;;5032756;28;20124;-36
2023/11/03 00:25:16;;;;;;;6.78;4.82;;;8.00;99.90;;;;;;5032366;28;20103;-40
2023/11/03 00:27:46;;;;;;;7.90;4.97;;;8.10;99.90;;;;;;5030949;28;20142;-37
2023/11/03 00:30:13;;;;;;;7.28;4.65;;;8.10;99.90;;;;;;5032430;28;20052;-37
2023/11/03 00:32:41;;;;;;;7.63;4.93;;;8.10;99.90;;;;;;5031504;28;20044;-37
2023/11/03 00:35:08;;;;;;;7.03;4.60;;;8.10;99.90;;;;;;5033173;28;20041;-39
2023/11/03 00:37:38;;;;;;;7.75;4.28;;;8.00;99.90;;;;;;5030547;28;20045;-39
2023/11/03 00:40:08;;;;;;;11.27;5.15;;;8.10;99.90;;;;;;5014699;28;20136;-38
2023/11/03 00:42:36;;;;;;;7.82;4.85;;;8.10;99.90;;;;;;5034766;28;20132;-37
2023/11/03 00:45:05;;;;;;;9.35;5.90;;;8.10;99.90;;;;;;5034735;28;20050;-38
2023/11/03 00:47:32;;;;;;;10.65;6.20;;;8.00;99.90;;;;;;5032464;28;20071;-35
2023/11/03 00:49:59;;;;;;;8.38;5.47;;;8.00;99.90;;;;;;5032189;28;20038;-38
2023/11/03 00:52:26;;;;;;;9.73;5.22;;;8.00;99.90;;;;;;5034182;28;20099;-39
2023/11/03 00:54:53;;;;;;;9.63;5.82;;;8.00;99.90;;;;;;5034419;28;20104;-39
2023/11/03 00:57:21;;;;;;;10.98;5.47;;;7.90;99.90;;;;;;5037340;28;20057;-36
2023/11/03 00:59:49;;;;;;;8.43;5.60;;;7.90;99.90;;;;;;5032480;28;20049;-36
2023/11/03 01:02:17;;;;;;;7.68;5.63;;;7.90;99.90;;;;;;5032630;28;20041;-38
2023/11/03 01:04:45;;;;;;;7.90;5.40;;;7.90;99.90;;;;;;5032201;28;20053;-38
2023/11/03 01:07:12;;;;;;;7.53;5.03;;;7.90;99.90;;;;;;5045277;28;20048;-38
2023/11/03 01:09:39;;;;;;;8.48;5.45;;;7.90;99.90;;;;;;5044381;28;20064;-40
2023/11/03 01:12:06;;;;;;;7.90;5.22;;;7.80;99.90;;;;;;5038039;28;20049;-41
2023/11/03 01:14:34;;;;;;;8.07;5.35;;;7.90;99.90;;;;;;5043822;28;20042;-39
2023/11/03 01:17:02;;;;;;;8.50;5.63;;;7.80;99.90;;;;;;5036552;28;20087;-37
2023/11/03 01:19:31;;;;;;;8.05;5.32;;;7.80;99.90;;;;;;5033126;28;20048;-38
2023/11/03 01:21:59;;;;;;;9.00;5.45;;;7.80;99.90;;;;;;5031652;28;20042;-39
2023/11/03 01:24:27;;;;;;;7.53;5.25;;;7.90;99.90;;;;;;5034874;28;20045;-39
2023/11/03 01:26:54;;;;;;;8.63;5.15;;;7.90;99.90;;;;;;5035742;28;20049;-38
2023/11/03 01:29:21;;;;;;;11.32;5.25;;;7.90;99.90;;;;;;5036612;28;20482;-37
2023/11/03 01:31:48;;;;;;;7.78;5.13;;;7.90;99.90;;;;;;5036805;28;20046;-38
2023/11/03 01:34:16;;;;;;;8.43;5.35;;;7.80;99.90;;;;;;5034028;28;20053;-36
2023/11/03 01:36:43;;;;;;;8.98;5.28;;;7.80;99.90;;;;;;5033004;28;20073;-39
2023/11/03 01:39:10;;;;;;;7.13;4.55;;;7.80;99.90;;;;;;5033139;28;20046;-37
2023/11/03 01:41:37;;;;;;;7.13;4.90;;;7.80;99.90;;;;;;5037127;28;20139;-36
2023/11/03 01:44:07;;;;;;;8.10;5.18;;;7.80;99.90;;;;;;5039615;28;20061;-39
2023/11/03 01:46:37;;;;;;;8.57;5.40;;;7.80;99.90;;;;;;5039845;28;20140;-39
2023/11/03 01:49:11;;;;;;;7.78;5.22;;;7.80;99.90;;;;;;5039379;28;20061;-38
2023/11/03 01:51:39;;;;;;;8.10;5.30;;;7.70;99.90;;;;;;5033620;28;20893;-39
2023/11/03 01:54:07;;;;;;;9.93;5.70;;;7.60;99.90;;;;;;5037432;28;20065;-37
2023/11/03 01:56:35;;;;;;;8.30;5.55;;;7.70;99.90;;;;;;5032398;28;20060;-36
2023/11/03 01:59:05;;;;;;;8.23;5.88;;;7.60;99.90;;;;;;5039265;28;20060;-38
2023/11/03 02:01:34;;;;;;;8.02;5.55;;;7.70;99.90;;;;;;5027012;28;20141;-39
2023/11/03 02:04:02;;;;;;;10.55;5.82;;;7.60;99.90;;;;;;5039691;28;20481;-36
2023/11/03 02:06:29;;;;;;;7.70;5.38;;;7.60;99.90;;;;;;5035541;28;20049;-40
2023/11/03 02:08:56;;;;;;;9.43;6.03;;;7.60;99.90;;;;;;5035738;28;20040;-37
2023/11/03 02:11:29;;;;;;;6.72;5.30;;;7.60;99.90;;;;;;5038543;28;20441;-38
2023/11/03 02:13:56;;;;;;;11.88;5.97;;;7.60;99.90;;;;;;5036608;28;20221;-40
2023/11/03 02:16:24;;;;;;;9.80;5.78;;;7.60;99.90;;;;;;5037626;28;20069;-39
2023/11/03 02:18:52;;;;;;;10.40;6.15;;;7.50;99.90;;;;;;5036762;28;20050;-36
2023/11/03 02:21:19;;;;;;;11.23;6.10;;;7.50;99.90;;;;;;5037981;28;20060;-37
2023/11/03 02:23:46;;;;;;;9.40;5.82;;;7.50;99.90;;;;;;5036535;28;20057;-39
2023/11/03 02:26:13;;;;;;;10.75;6.40;;;7.50;99.90;;;;;;5041415;28;20074;-36
2023/11/03 02:28:40;;;;;;;9.55;5.57;;;7.40;99.90;;;;;;5036646;28;20080;-38
2023/11/03 02:31:07;;;;;;;9.77;6.80;;;7.40;99.90;;;;;;5025689;28;20048;-41
2023/11/03 02:33:34;;;;;;;9.50;6.05;;;7.40;99.90;;;;;;5035668;28;20046;-40
2023/11/03 02:36:03;;;;;;;10.68;6.78;;;7.30;99.90;;;;;;5034060;28;20045;-37
2023/11/03 02:38:30;;;;;;;8.75;6.35;;;7.30;99.90;;;;;;5038397;28;20085;-39
2023/11/03 02:40:57;;;;;;;10.40;6.47;;;7.30;99.90;;;;;;5037349;28;20061;-39
2023/11/03 02:43:25;;;;;;;9.90;6.90;;;7.30;99.90;;;;;;5038460;28;20045;-38
2023/11/03 02:45:52;;;;;;;10.77;6.47;;;7.20;99.90;;;;;;5040419;28;20073;-40
2023/11/03 02:48:19;;;;;;;11.25;6.95;;;7.20;99.90;;;;;;5038736;28;20038;-37
2023/11/03 02:50:46;;;;;;;9.32;6.15;;;7.20;99.90;;;;;;5033290;28;20041;-37
2023/11/03 02:53:13;;;;;;;11.30;7.43;;;7.10;99.90;;;;;;5040145;28;20107;-38
2023/11/03 02:55:40;;;;;;;10.75;6.70;;;7.10;99.90;;;;;;5039749;28;20357;-41
2023/11/03 02:58:08;;;;;;;9.27;6.57;;;7.00;99.90;;;;;;5019414;28;20033;-39
2023/11/03 03:00:35;;;;;;;12.95;7.22;;;7.00;99.90;;;;;;5032383;28;20041;-38
2023/11/03 03:03:06;;;;;;;12.32;7.07;;;6.90;99.90;;;;;;5037220;28;20049;-39
2023/11/03 03:05:34;;;;;;;10.38;6.82;;;6.90;99.90;;;;;;5037011;28;20049;-38
2023/11/03 03:08:03;;;;;;;10.80;6.93;;;6.90;99.90;;;;;;5035873;28;20069;-40
2023/11/03 03:10:32;;;;;;;11.00;7.53;;;6.80;99.90;;;;;;5037986;28;20047;-39
2023/11/03 03:13:00;;;;;;;12.48;7.35;;;6.80;99.90;;;;;;5042297;28;20048;-39
2023/11/03 03:15:27;;;;;;;10.80;6.93;;;6.80;99.90;;;;;;5038699;28;20482;-37
2023/11/03 03:17:54;;;;;;;12.90;6.90;;;6.80;99.90;;;;;;5034637;28;20418;-40
2023/11/03 03:20:22;;;;;;;11.63;7.35;;;6.80;99.90;;;;;;5035923;28;20053;-36
2023/11/03 03:22:50;;;;;;;9.25;6.45;;;6.80;99.90;;;;;;5032565;28;20064;-39
2023/11/03 03:25:17;;;;;;;12.65;6.90;;;6.80;99.90;;;;;;5031682;28;20149;-40
2023/11/03 03:27:44;;;;;;;10.95;6.80;;;6.80;99.90;;;;;;5030662;28;20176;-37
2023/11/03 03:30:12;;;;;;;10.88;7.10;;;6.70;99.90;;;;;;5036463;28;20055;-38
2023/11/03 03:32:39;;;;;;;10.95;7.28;;;6.70;99.90;;;;;;5035193;28;20056;-38
2023/11/03 03:35:06;;;;;;;12.23;7.20;;;6.70;99.90;;;;;;5027188;28;20128;-38
2023/11/03 03:37:33;;;;;;;9.10;6.40;;;6.70;99.90;;;;;;5035405;28;20033;-39
2023/11/03 03:40:00;;;;;;;11.27;7.05;;;6.60;99.90;;;;;;5033187;28;20054;-37
2023/11/03 03:42:29;;;;;;;11.77;7.13;;;6.60;99.90;;;;;;5029146;28;20037;-38
2023/11/03 03:44:56;;;;;;;10.63;7.35;;;6.60;99.90;;;;;;5032507;28;20404;-39
2023/11/03 03:47:24;;;;;;;14.93;7.90;;;6.60;99.90;;;;;;5031745;28;20461;-37
2023/11/03 03:49:51;;;;;;;10.82;6.65;;;6.50;99.90;;;;;;5030602;28;20454;-38
2023/11/03 03:52:18;;;;;;;12.95;7.60;;;6.50;99.90;;;;;;5031993;28;20036;-36
2023/11/03 03:54:45;;;;;;;12.65;8.52;;;6.50;99.90;;;;;;5010524;28;20140;-38
2023/11/03 03:57:12;;;;;;;13.77;8.70;;;6.50;99.90;;;;;;5031248;28;20054;-39
2023/11/03 03:59:39;;;;;;;13.82;8.85;;;6.50;99.90;;;;;;5045255;28;20057;-38
2023/11/03 04:02:07;;;;;;;13.40;9.10;;;6.50;99.90;;;;;;5040558;28;20317;-38
2023/11/03 04:04:34;;;;;;;13.88;8.57;;;6.50;99.90;;;;;;5043117;28;20025;-39
2023/11/03 04:07:01;;;;;;;14.73;8.55;;;6.50;99.90;;;;;;5040882;28;20053;-36
2023/11/03 04:09:28;;;;;;;14.55;9.15;;;6.40;99.90;;;;;;5032962;28;20564;-37
2023/11/03 04:11:55;;;;;;;18.23;10.85;;;6.40;99.90;;;;;;5025126;28;20482;-38
2023/11/03 04:14:23;;;;;;;13.85;9.02;;;6.40;99.90;;;;;;5030258;28;20165;-37
2023/11/03 04:16:51;;;;;;;13.05;8.48;;;6.40;99.90;;;;;;5026361;28;20048;-40
2023/11/03 04:19:18;;;;;;;14.38;9.13;;;6.40;99.90;;;;;;5028630;28;20053;-39
2023/11/03 04:21:46;;;;;;;14.57;9.63;;;6.40;99.90;;;;;;5026433;28;20057;-37
2023/11/03 04:24:13;;;;;;;13.55;9.18;;;6.40;99.90;;;;;;5028860;28;20151;-40
2023/11/03 04:26:40;;;;;;;13.75;9.82;;;6.40;99.90;;;;;;5025725;28;20625;-40
2023/11/03 04:29:07;;;;;;;15.80;9.77;;;6.30;99.90;;;;;;5024693;28;20048;-37
2023/11/03 04:31:34;;;;;;;14.65;9.38;;;6.40;99.90;;;;;;5031930;28;20041;-38
2023/11/03 04:34:01;;;;;;;15.40;9.98;;;6.40;99.90;;;;;;5030537;28;20053;-39
2023/11/03 04:36:29;;;;;;;22.65;11.63;;;6.40;99.90;;;;;;5038415;28;20072;-39
2023/11/03 04:38:56;;;;;;;19.83;12.27;;;6.50;99.90;;;;;;5036549;28;20053;-36
2023/11/03 04:41:23;;;;;;;21.55;12.98;;;6.50;99.90;;;;;;5026974;28;20069;-40
2023/11/03 04:43:50;;;;;;;16.83;11.30;;;6.60;99.90;;;;;;5029344;28;20037;-38
2023/11/03 04:46:17;;;;;;;16.40;10.80;;;6.60;99.90;;;;;;5028012;28;20487;-38
2023/11/03 04:48:45;;;;;;;16.42;11.10;;;6.60;99.90;;;;;;5025896;28;20051;-39
2023/11/03 04:51:13;;;;;;;16.40;10.25;;;6.60;99.90;;;;;;5027221;28;20049;-40
2023/11/03 04:53:41;;;;;;;16.30;10.48;;;6.60;99.90;;;;;;5028486;28;20518;-37
2023/11/03 04:56:08;;;;;;;16.95;10.13;;;6.60;99.90;;;;;;5025779;28;20132;-37
2023/11/03 04:58:35;;;;;;;14.30;10.00;;;6.60;99.90;;;;;;5023768;28;20046;-38
2023/11/03 05:01:03;;;;;;;15.98;10.05;;;6.60;99.90;;;;;;5032378;28;20099;-39
2023/11/03 05:03:31;;;;;;;14.93;9.93;;;6.60;99.90;;;;;;5026765;28;20044;-38
2023/11/03 05:05:59;;;;;;;17.25;10.45;;;6.50;99.90;;;;;;5025571;28;20049;-38
2023/11/03 05:08:26;;;;;;;15.82;9.32;;;6.50;99.90;;;;;;5026527;28;20038;-37
2023/11/03 05:10:53;;;;;;;15.18;8.90;;;6.50;99.90;;;;;;5027607;28;20111;-38
2023/11/03 05:13:20;;;;;;;13.68;9.15;;;6.40;99.90;;;;;;5027210;28;20060;-37
2023/11/03 05:15:47;;;;;;;15.82;9.38;;;6.50;99.90;;;;;;5027022;28;20176;-39
2023/11/03 05:18:14;;;;;;;13.43;9.32;;;6.40;99.90;;;;;;5027739;28;20050;-36
2023/11/03 05:20:42;;;;;;;15.75;10.15;;;6.50;99.90;;;;;;5027722;28;20073;-39
2023/11/03 05:23:09;;;;;;;12.48;8.75;;;6.40;99.90;;;;;;5025533;28;20056;-38
2023/11/03 05:25:36;;;;;;;13.82;8.80;;;6.40;99.90;;;;;;5027756;28;20084;-38
2023/11/03 05:28:03;;;;;;;13.30;9.15;;;6.40;99.90;;;;;;5029785;28;20465;-40
2023/11/03 05:30:30;;;;;;;14.88;8.52;;;6.40;99.90;;;;;;5029751;28;20088;-36
2023/11/03 05:32:57;;;;;;;13.20;8.45;;;6.50;99.90;;;;;;5027849;28;20478;-38
2023/11/03 05:35:25;;;;;;;13.13;7.68;;;6.50;99.90;;;;;;5028047;28;20049;-40
2023/11/03 05:37:51;;;;;;;18.05;7.82;;;6.50;99.90;;;;;;5027558;28;20045;-37
2023/11/03 05:40:19;;;;;;;12.70;7.63;;;6.50;99.90;;;;;;5029495;28;20041;-38
2023/11/03 05:42:46;;;;;;;12.40;8.10;;;6.50;99.90;;;;;;5028119;28;20058;-40
2023/11/03 05:45:13;;;;;;;11.27;7.22;;;6.50;99.90;;;;;;5030795;28;20053;-38
2023/11/03 05:47:40;;;;;;;16.38;7.88;;;6.40;99.90;;;;;;5025145;28;20049;-38
2023/11/03 05:50:07;;;;;;;14.73;7.57;;;6.40;99.90;;;;;;5022328;28;20059;-39
2023/11/03 05:52:34;;;;;;;14.52;8.32;;;6.40;99.90;;;;;;5028645;28;20036;-38
2023/11/03 05:55:02;;;;;;;15.45;7.53;;;6.40;99.90;;;;;;5022979;28;20049;-39
2023/11/03 05:57:29;;;;;;;11.48;7.53;;;6.30;99.90;;;;;;5028970;28;20052;-38
2023/11/03 05:59:56;;;;;;;13.77;8.50;;;6.30;99.90;;;;;;5032352;28;20080;-39
2023/11/03 06:02:23;;;;;;;16.77;8.55;;;6.30;99.90;;;;;;5037120;28;20092;-39
2023/11/03 06:04:50;;;;;;;12.10;7.82;;;6.30;99.90;;;;;;5037876;28;20041;-40
2023/11/03 06:07:17;;;;;;;11.85;7.95;;;6.30;99.90;;;;;;5032994;28;20550;-38
2023/11/03 06:09:45;;;;;;;16.63;8.50;;;6.20;99.90;;;;;;5032480;28;20046;-39
2023/11/03 06:12:12;;;;;;;13.95;8.20;;;6.20;99.90;;;;;;5034164;28;20050;-38
2023/11/03 06:14:39;;;;;;;14.20;7.63;;;6.20;99.90;;;;;;5030554;28;20069;-39
2023/11/03 06:17:06;;;;;;;11.95;7.85;;;6.20;99.90;;;;;;5030140;28;20033;-34
2023/11/03 06:19:33;;;;;;;12.65;7.53;;;6.20;99.90;;;;;;5030128;28;20502;-36
2023/11/03 06:22:01;;;;;;;13.68;7.25;;;6.30;99.90;;;;;;5032005;28;20045;-36
2023/11/03 06:24:32;;;;;;;12.07;6.85;;;6.30;99.90;;;;;;5038654;28;20073;-35
2023/11/03 06:27:00;;;;;;;14.38;8.40;;;6.20;99.90;;;;;;5040415;28;20065;-36
2023/11/03 06:29:27;;;;;;;14.73;8.55;;;6.20;99.90;;;;;;5042072;28;20068;-38
2023/11/03 06:31:54;;;;;;;17.17;9.05;;;6.30;99.90;;;;;;5042744;28;20049;-38
2023/11/03 06:34:21;;;;;;;17.98;9.15;;;6.30;99.90;;;;;;5043063;28;20045;-39
2023/11/03 06:36:48;;;;;;;13.07;8.25;;;6.40;99.90;;;;;;5032261;28;20459;-41
2023/11/03 06:39:17;;;;;;;14.27;8.60;;;6.40;99.90;;;;;;5031625;28;20129;-39
2023/11/03 06:41:44;;;;;;;14.52;8.82;;;6.40;99.90;;;;;;5028299;28;20053;-38
2023/11/03 06:44:12;;;;;;;13.25;8.48;;;6.50;99.90;;;;;;5032846;28;20041;-36
2023/11/03 06:46:39;;;;;;;10.27;6.78;;;6.50;99.90;;;;;;5028429;28;20064;-38
2023/11/03 06:49:07;;;;;;;11.25;6.78;;;6.60;99.90;;;;;;5029711;28;20158;-39
2023/11/03 06:51:34;;;;;;;13.38;6.43;;;6.60;99.90;;;;;;5030475;28;20045;-36
2023/11/03 06:54:02;;;;;;;10.40;6.28;;;6.60;99.90;;;;;;5027029;28;20104;-41
2023/11/03 06:56:30;;;;;;;10.07;5.32;;;6.60;99.90;;;;;;5027693;28;20044;-37
2023/11/03 06:58:57;;;;;;;10.02;6.30;;;6.70;99.90;;;;;;5029341;28;20038;-38
2023/11/03 07:01:26;;;;;;;11.30;5.85;;;6.70;99.90;;;;;;5030748;28;20092;-39
2023/11/03 07:03:53;;;;;;;11.98;5.18;;;6.70;99.90;;;;;;5026971;28;20041;-38
2023/11/03 07:06:20;;;;;;;11.23;6.18;;;6.80;99.90;;;;;;5033359;28;20046;-38
2023/11/03 07:08:48;;;;;;;11.60;6.22;;;6.80;99.90;;;;;;5039446;28;20049;-39
2023/11/03 07:11:16;;;;;;;9.95;5.70;;;6.80;99.90;;;;;;5031438;28;20033;-37
2023/11/03 07:13:43;;;;;;;10.82;4.47;;;6.90;99.90;;;;;;5033350;28;20072;-37
2023/11/03 07:16:12;;;;;;;10.63;5.45;;;6.80;99.90;;;;;;5037286;28;20061;-39
2023/11/03 07:18:43;;;;;;;11.45;4.45;;;6.90;99.90;;;;;;5033049;28;20045;-41
2023/11/03 07:21:15;;;;;;;11.10;5.00;;;7.00;99.90;;;;;;5029601;28;20049;-40
2023/11/03 07:23:43;;;;;;;9.32;4.30;;;7.00;99.90;;;;;;5040992;28;20164;-40
2023/11/03 07:26:13;;;;;;;6.22;4.30;;;7.00;99.90;;;;;;5037359;28;20045;-38
2023/11/03 07:28:45;;;;;;;8.55;4.63;;;7.00;99.90;;;;;;5035940;28;20141;-39
2023/11/03 07:31:13;;;;;;;7.55;4.38;;;7.10;99.90;;;;;;5042679;28;20037;-40
2023/11/03 07:33:41;;;;;;;10.73;4.20;;;7.10;99.90;;;;;;5044849;28;20049;-38
2023/11/03 07:36:10;;;;;;;12.05;4.65;;;7.00;99.90;;;;;;5037505;28;20049;-39
2023/11/03 07:38:37;;;;;;;8.05;3.60;;;7.00;99.90;;;;;;5037960;28;20049;-39
2023/11/03 07:41:08;;;;;;;9.90;4.00;;;6.90;99.90;;;;;;5037303;28;20052;-39
2023/11/03 07:43:38;;;;;;;8.30;4.20;;;7.00;99.90;;;;;;5035719;28;20376;-36
2023/11/03 07:46:05;;;;;;;8.63;4.32;;;7.10;99.90;;;;;;5032939;28;20454;-40
2023/11/03 07:48:32;;;;;;;8.82;4.53;;;7.20;99.90;;;;;;5034378;28;20049;-40
2023/11/03 07:51:00;;;;;;;8.73;4.60;;;7.30;99.90;;;;;;5034724;28;20054;-39
2023/11/03 07:53:27;;;;;;;7.78;3.88;;;7.40;99.90;;;;;;5034676;28;20042;-40
2023/11/03 07:55:58;;;;;;;13.82;4.28;;;7.50;99.90;;;;;;5033275;28;20180;-39
2023/11/03 07:58:26;;;;;;;8.13;4.07;;;7.60;99.90;;;;;;5035789;28;20045;-39
2023/11/03 08:00:56;;;;;;;14.38;7.63;;;7.70;99.90;;;;;;5036193;28;20042;-38
2023/11/03 08:03:24;;;;;;;18.95;8.88;;;7.70;99.90;;;;;;5043869;28;20091;-41
2023/11/03 08:05:52;;;;;;;10.98;5.63;;;7.80;99.90;;;;;;5035755;28;20057;-39
2023/11/03 08:08:19;;;;;;;9.38;4.45;;;7.90;99.90;;;;;;5040263;28;20060;-39
2023/11/03 08:10:46;;;;;;;9.57;4.40;;;7.90;99.90;;;;;;5032604;28;20045;-37
2023/11/03 08:13:13;;;;;;;11.00;4.90;;;8.00;99.90;;;;;;5037234;28;20051;-38
2023/11/03 08:15:41;;;;;;;8.38;3.70;;;8.10;99.90;;;;;;5040655;28;20410;-40
2023/11/03 08:18:08;;;;;;;7.50;4.10;;;8.20;99.90;;;;;;5032708;28;20041;-37
2023/11/03 08:20:35;;;;;;;7.93;3.80;;;8.20;99.90;;;;;;5035263;28;20037;-39
2023/11/03 08:23:03;;;;;;;17.17;8.30;;;8.30;99.90;;;;;;5032327;28;20057;-38
2023/11/03 08:25:30;;;;;;;11.18;4.22;;;8.40;99.90;;;;;;5030682;28;20060;-40
2023/11/03 08:27:58;;;;;;;8.32;3.15;;;8.40;99.90;;;;;;5030901;28;20486;-39
2023/11/03 08:30:25;;;;;;;10.57;3.22;;;8.30;99.90;;;;;;5028279;28;20041;-40
2023/11/03 08:32:53;;;;;;;7.68;3.10;;;8.40;99.90;;;;;;5030034;28;20041;-39
2023/11/03 08:35:21;;;;;;;7.57;2.85;;;8.30;99.90;;;;;;5033859;28;20140;-39
2023/11/03 08:37:53;;;;;;;7.75;2.70;;;8.40;99.90;;;;;;5031596;28;20046;-38
2023/11/03 08:40:21;;;;;;;7.25;2.90;;;8.40;99.90;;;;;;5032255;28;20049;-39
2023/11/03 08:42:49;;;;;;;9.00;2.63;;;8.40;99.90;;;;;;5026389;28;20118;-40
2023/11/03 08:45:17;;;;;;;8.40;2.70;;;8.40;99.90;;;;;;5029657;28;20045;-36
2023/11/03 08:47:44;;;;;;;10.15;2.42;;;8.10;99.90;;;;;;5029942;28;20083;-40
2023/11/03 08:50:14;;;;;;;4.22;2.35;;;8.10;99.90;;;;;;5031315;28;20049;-41
2023/11/03 08:52:44;;;;;;;7.43;2.58;;;8.10;99.90;;;;;;5030830;28;20486;-39
2023/11/03 08:55:12;;;;;;;8.15;2.50;;;8.00;99.90;;;;;;5025817;28;20046;-40
2023/11/03 08:57:41;;;;;;;5.85;2.45;;;8.00;99.90;;;;;;5029266;28;20056;-38
2023/11/03 09:00:11;;;;;;;6.80;2.47;;;8.00;99.90;;;;;;5025440;28;20041;-38
2023/11/03 09:02:41;;;;;;;11.02;3.00;;;8.10;99.90;;;;;;5030067;28;20048;-37
2023/11/03 09:05:10;;;;;;;9.15;2.72;;;7.90;99.90;;;;;;5031336;28;20046;-36
2023/11/03 09:07:39;;;;;;;8.85;2.42;;;7.90;99.90;;;;;;5031367;28;20049;-39
2023/11/03 09:10:08;;;;;;;7.53;2.80;;;7.80;99.90;;;;;;5025767;28;20057;-37
2023/11/03 09:12:37;;;;;;;10.70;2.70;;;7.80;99.90;;;;;;5033806;28;20037;-39
2023/11/03 09:15:05;;;;;;;8.35;3.08;;;7.80;99.90;;;;;;5033425;28;20045;-39
2023/11/03 09:17:33;;;;;;;5.38;2.67;;;7.70;99.90;;;;;;5032868;28;20061;-39
2023/11/03 09:20:04;;;;;;;9.32;3.25;;;7.80;99.90;;;;;;5028656;28;20057;-45
2023/11/03 09:22:31;;;;;;;7.20;2.75;;;7.80;99.90;;;;;;5029443;28;20054;-37
2023/11/03 09:25:04;;;;;;;9.85;3.05;;;7.80;99.90;;;;;;5030827;28;20422;-36
2023/11/03 09:27:33;;;;;;;7.80;2.72;;;7.90;99.90;;;;;;5032142;28;20053;-37
2023/11/03 09:30:04;;;;;;;5.80;2.50;;;8.00;99.90;;;;;;5031744;28;20495;-38
2023/11/03 09:32:32;;;;;;;5.90;2.95;;;8.00;99.90;;;;;;5029080;28;20188;-38
2023/11/03 09:34:59;;;;;;;7.63;3.08;;;8.00;99.90;;;;;;5029868;28;20196;-40
2023/11/03 09:37:27;;;;;;;7.63;2.83;;;8.00;99.90;;;;;;5029421;28;20129;-39
2023/11/03 09:39:54;;;;;;;6.68;2.70;;;8.00;99.90;;;;;;5030348;28;20057;-39
2023/11/03 09:42:23;;;;;;;7.68;3.08;;;8.10;99.90;;;;;;5025232;28;20471;-37
2023/11/03 09:44:50;;;;;;;8.48;2.90;;;8.10;99.90;;;;;;5029906;28;20053;-38
2023/11/03 09:47:17;;;;;;;10.18;3.97;;;8.20;99.90;;;;;;5031780;28;20104;-39
2023/11/03 09:49:45;;;;;;;12.50;3.10;;;8.20;99.90;;;;;;5029532;28;20055;-39
2023/11/03 09:52:13;;;;;;;8.00;3.47;;;8.30;99.90;;;;;;5031565;28;20050;-40
2023/11/03 09:54:41;;;;;;;6.53;2.83;;;8.30;99.90;;;;;;5029690;28;20037;-37
2023/11/03 09:57:11;;;;;;;8.70;3.28;;;8.30;99.90;;;;;;5028910;28;20410;-39
2023/11/03 09:59:39;;;;;;;10.50;2.88;;;8.30;99.90;;;;;;5031408;28;20419;-38
2023/11/03 10:02:17;;;;;;;4.53;2.53;;;8.40;99.90;;;;;;5036190;28;20096;-37
2023/11/03 10:04:44;;;;;;;8.07;2.78;;;8.20;99.90;;;;;;5041165;28;20045;-39
2023/11/03 10:07:13;;;;;;;7.65;3.15;;;8.30;99.90;;;;;;5032333;28;20050;-40
2023/11/03 10:09:44;;;;;;;6.60;3.20;;;8.30;99.90;;;;;;5030727;28;20425;-40
2023/11/03 10:12:17;;;;;;;7.82;2.25;;;8.30;99.90;;;;;;5029395;28;20067;-38
2023/11/03 10:14:46;;;;;;;5.28;2.63;;;8.30;99.90;;;;;;5027894;28;20050;-38
2023/11/03 10:17:14;;;;;;;6.75;3.45;;;8.40;99.90;;;;;;5030413;28;20139;-38
2023/11/03 10:19:41;;;;;;;7.30;2.42;;;8.40;99.90;;;;;;5029188;28;20057;-39
2023/11/03 10:22:09;;;;;;;7.38;2.40;;;8.30;99.90;;;;;;5030128;28;20041;-39
2023/11/03 10:24:38;;;;;;;6.00;2.70;;;8.30;99.90;;;;;;5030348;28;20060;-38
2023/11/03 10:27:11;;;;;;;7.43;2.40;;;8.10;99.90;;;;;;5024807;28;20478;-36
2023/11/03 10:29:39;;;;;;;5.45;2.10;;;8.10;99.90;;;;;;5030948;28;20037;-37
2023/11/03 10:32:09;;;;;;;6.63;2.72;;;8.10;99.90;;;;;;5026973;28;20037;-37
2023/11/03 10:34:38;;;;;;;5.28;2.28;;;8.10;99.90;;;;;;5031039;28;20049;-39
2023/11/03 10:37:06;;;;;;;6.32;2.50;;;8.10;99.90;;;;;;5030403;28;20053;-40
2023/11/03 10:39:33;;;;;;;7.45;2.67;;;8.20;99.90;;;;;;5030496;28;20045;-38
2023/11/03 10:42:04;;;;;;;7.18;2.28;;;8.20;99.90;;;;;;5033793;28;20107;-41
2023/11/03 10:44:32;;;;;;;4.07;1.95;;;8.30;99.90;;;;;;5033445;28;20158;-40
2023/11/03 10:47:05;;;;;;;5.30;1.85;;;8.30;99.90;;;;;;5034906;28;20060;-40
2023/11/03 10:49:36;;;;;;;6.03;2.03;;;8.20;99.90;;;;;;5031124;28;20259;-38
2023/11/03 10:52:13;;;;;;;5.67;2.27;;;8.20;99.90;;;;;;5030691;28;20042;-39
2023/11/03 10:55:08;;;;;;;7.85;2.13;;;8.20;99.90;;;;;;5030632;28;20791;-38
2023/11/03 10:57:36;;;;;;;4.18;1.73;;;8.20;99.90;;;;;;5029661;28;20041;-39
2023/11/03 11:00:17;;;;;;;8.00;1.95;;;8.30;99.90;;;;;;5028289;28;20095;-39
2023/11/03 11:02:45;;;;;;;5.72;2.40;;;8.40;99.90;;;;;;5035683;28;20532;-36
2023/11/03 11:05:25;;;;;;;4.40;1.80;;;8.40;99.90;;;;;;5040601;28;20068;-35
2023/11/03 11:07:58;;;;;;;5.18;1.73;;;8.40;99.90;;;;;;5035275;28;20206;-40
2023/11/03 11:10:41;;;;;;;5.93;1.83;;;8.40;99.90;;;;;;5030153;28;20044;-39
2023/11/03 11:13:17;;;;;;;6.35;1.90;;;8.30;99.90;;;;;;5027685;28;20525;-38
2023/11/03 11:15:56;;;;;;;5.50;1.80;;;8.30;99.90;;;;;;5030737;28;20322;-37
2023/11/03 11:18:30;;;;;;;6.25;2.30;;;8.40;99.90;;;;;;5032508;28;20540;-39
2023/11/03 11:21:03;;;;;;;8.38;2.40;;;8.30;99.90;;;;;;5031371;28;20045;-40
2023/11/03 11:23:35;;;;;;;7.00;2.50;;;8.40;99.90;;;;;;5030861;28;20422;-38
2023/11/03 11:26:06;;;;;;;4.50;2.15;;;8.50;99.90;;;;;;5034253;28;20049;-39
2023/11/03 11:28:43;;;;;;;8.27;2.92;;;8.60;99.90;;;;;;5039060;28;20109;-39
2023/11/03 11:31:27;;;;;;;4.50;1.80;;;8.60;99.90;;;;;;5034052;28;20037;-41
2023/11/03 11:34:17;;;;;;;6.53;2.20;;;8.70;99.90;;;;;;5035046;28;20137;-39
2023/11/03 11:36:47;;;;;;;3.25;1.75;;;8.80;99.90;;;;;;5033953;28;20041;-40
2023/11/03 11:39:17;;;;;;;6.28;2.17;;;8.80;99.90;;;;;;5036232;28;20091;-38
2023/11/03 11:41:53;;;;;;;4.45;1.75;;;8.90;99.90;;;;;;5033262;28;20045;-37
2023/11/03 11:44:23;;;;;;;4.00;1.75;;;8.80;99.90;;;;;;5038447;28;20057;-35
2023/11/03 11:47:01;;;;;;;2.67;1.60;;;8.90;99.90;;;;;;5030448;28;20128;-40
2023/11/03 11:49:30;;;;;;;7.65;1.90;;;9.00;99.90;;;;;;5039385;28;20136;-39
2023/11/03 11:51:59;;;;;;;5.43;1.70;;;8.90;99.90;;;;;;5043904;28;20041;-39
2023/11/03 11:54:27;;;;;;;4.30;1.75;;;8.90;99.90;;;;;;5034680;28;20095;-38
2023/11/03 11:56:55;;;;;;;4.03;1.80;;;9.00;99.90;;;;;;5038565;28;20054;-39
2023/11/03 11:59:23;;;;;;;6.55;2.30;;;8.90;99.90;;;;;;5041489;28;20038;-39
2023/11/03 12:01:53;;;;;;;6.70;1.80;;;8.90;99.90;;;;;;5035464;28;20465;-41
2023/11/03 12:04:23;;;;;;;5.47;1.90;;;8.90;99.90;;;;;;5033084;28;20111;-38
2023/11/03 12:06:51;;;;;;;4.75;1.98;;;8.90;99.90;;;;;;5031858;28;20075;-40
2023/11/03 12:09:19;;;;;;;3.72;1.67;;;9.00;99.90;;;;;;5031850;28;20529;-37
2023/11/03 12:11:46;;;;;;;6.93;2.00;;;8.90;99.90;;;;;;5031377;28;20072;-38
2023/11/03 12:14:14;;;;;;;3.95;1.70;;;9.00;99.90;;;;;;5032992;28;20048;-39
2023/11/03 12:16:45;;;;;;;5.43;1.60;;;9.00;99.90;;;;;;5034131;28;20538;-44
2023/11/03 12:19:13;;;;;;;4.85;2.00;;;9.00;99.90;;;;;;5031496;28;20042;-39
2023/11/03 12:21:41;;;;;;;7.10;2.22;;;9.00;99.90;;;;;;5033927;28;20113;-38
2023/11/03 12:24:12;;;;;;;4.95;1.67;;;9.00;99.90;;;;;;5027488;28;20037;-38
2023/11/03 12:26:40;;;;;;;5.95;1.95;;;9.00;99.90;;;;;;5032728;28;20087;-40
2023/11/03 12:29:26;;;;;;;4.75;1.70;;;9.10;99.90;;;;;;5032822;28;20037;-37
2023/11/03 12:31:56;;;;;;;9.60;2.38;;;9.00;99.90;;;;;;5029554;28;20081;-40
2023/11/03 12:34:25;;;;;;;4.82;1.80;;;9.10;99.90;;;;;;5034129;28;20498;-39
2023/11/03 12:36:58;;;;;;;5.78;1.85;;;9.10;99.90;;;;;;5031654;28;20120;-40
2023/11/03 12:39:27;;;;;;;8.90;2.35;;;9.00;99.90;;;;;;5029587;28;20056;-39
2023/11/03 12:42:07;;;;;;;6.40;1.67;;;9.00;99.90;;;;;;5025188;28;20117;-40
2023/11/03 12:45:01;;;;;;;6.60;2.38;;;9.00;99.90;;;;;;5027262;28;20064;-41
2023/11/03 12:47:40;;;;;;;6.82;1.83;;;9.00;99.90;;;;;;5041579;28;20049;-40
2023/11/03 12:50:19;;;;;;;6.38;2.08;;;9.00;99.90;;;;;;5040757;28;20500;-39
2023/11/03 12:52:47;;;;;;;5.55;2.00;;;9.00;99.90;;;;;;5042902;28;20088;-38
2023/11/03 12:55:19;;;;;;;4.13;2.05;;;9.10;99.90;;;;;;5038905;28;20514;-36
2023/11/03 12:57:48;;;;;;;4.70;1.77;;;9.10;99.90;;;;;;5026114;28;20536;-37
2023/11/03 13:00:23;;;;;;;4.88;2.08;;;9.10;99.90;;;;;;5033580;28;20041;-41